Temp: 2.4°C   Baro: 999.8mb
  Wind: 2.9mph   Dir: NW (316°)
  Rain: 0.0mm (0.0mm/hr)
  Solar: 0W/m2  Hum: 83%
 
Bath Spa Weather Historical Data
Daily Summary for January 15, 2020 Units:  English    Metric   Both
Next Day »
Daily Weekly Monthly Yearly Custom
  High: Low: Average:
Temperature: 49.3 °F 43.9 °F 45.9 °F
Dew Point: 44.8 °F 38.7 °F 41.7 °F
Humidity: 95% 74% 86%
Wind Speed: 14.1mph 0mph 3.9mph
Wind Gust: 22mph - -
Wind direction- - WSW
Pressure: 30 in 29.4 in -
Precipitation: 0.09 in    
Historical Graphs
 
 
Tabular Data for January 15, 2020
Time Temperature Dew Point Pressure Wind direction Wind Speed Wind Gust Humidity Rainfall Rate (Hourly) solar
00:00 46.2 °F 44.8 °F 29.4 in WNW 6 mph 11 mph 95% 0.04 in 0.00 W/m2
00:05 46.2 °F 44.8 °F 29.4 in NW 6.9 mph 11 mph 95% 0.05 in 0.00 W/m2
00:10 45.7 °F 44.4 °F 29.4 in NW 4.9 mph 10 mph 95% 0.06 in 0.00 W/m2
00:16 45.7 °F 44.4 °F 29.4 in NNW 4 mph 8 mph 95% 0.06 in 0.00 W/m2
00:20 45.7 °F 44.4 °F 29.4 in WNW 2 mph 7 mph 95% 0.06 in 0.00 W/m2
00:25 45.7 °F 44.4 °F 29.4 in West 2.9 mph 4 mph 95% 0.06 in 0.00 W/m2
00:30 45.7 °F 44.4 °F 29.4 in NW 2 mph 6 mph 95% 0.06 in 0.00 W/m2
00:35 45.7 °F 44.4 °F 29.4 in West 2 mph 5 mph 95% 0.06 in 0.00 W/m2
00:40 45.7 °F 44.4 °F 29.4 in NW 4 mph 6 mph 95% 0.06 in 0.00 W/m2
00:45 45.7 °F 44.4 °F 29.4 in West 4.9 mph 7 mph 95% 0.06 in 0.00 W/m2
00:50 45.5 °F 44.2 °F 29.4 in West 2 mph 8 mph 95% 0.06 in 0.00 W/m2
00:55 45.3 °F 44.1 °F 29.4 in WNW 4.9 mph 11 mph 95% 0.06 in 0.00 W/m2
01:00 45.3 °F 44.1 °F 29.4 in WNW 4 mph 7 mph 95% 0.05 in 0.00 W/m2
01:05 45.3 °F 44.1 °F 29.4 in West 6 mph 7 mph 95% 0.04 in 0.00 W/m2
01:10 45.3 °F 44.1 °F 29.4 in West 4.9 mph 7 mph 95% 0.03 in 0.00 W/m2
01:15 45.3 °F 44.1 °F 29.4 in West 4 mph 7 mph 95% 0.02 in 0.00 W/m2
01:20 45.3 °F 44.1 °F 29.4 in West 2.9 mph 7 mph 95% 0.02 in 0.00 W/m2
01:25 45.3 °F 44.1 °F 29.4 in West 6 mph 8 mph 95% 0.01 in 0.00 W/m2
01:30 45.1 °F 43.9 °F 29.5 in WNW 6 mph 12 mph 95% 0.02 in 0.00 W/m2
01:35 44.8 °F 43.5 °F 29.5 in WNW 6 mph 11 mph 95% 0.02 in 0.00 W/m2
01:40 44.8 °F 43.5 °F 29.5 in NW 4.9 mph 7 mph 95% 0.02 in 0.00 W/m2
01:45 44.6 °F 43.3 °F 29.5 in West 6 mph 9 mph 95% 0.02 in 0.00 W/m2
01:50 44.6 °F 43.3 °F 29.5 in West 4.9 mph 9 mph 95% 0.02 in 0.00 W/m2
01:55 44.6 °F 43.3 °F 29.5 in West 2.9 mph 5 mph 95% 0.01 in 0.00 W/m2
02:00 44.6 °F 43.3 °F 29.5 in WNW 4.9 mph 9 mph 95% 0.01 in 0.00 W/m2
02:05 44.6 °F 43.3 °F 29.5 in NW 2.9 mph 5 mph 95% 0.01 in 0.00 W/m2
02:10 44.6 °F 43.3 °F 29.5 in WNW 4 mph 5 mph 95% 0.02 in 0.00 W/m2
02:15 44.6 °F 43.3 °F 29.5 in WNW 0.9 mph 4 mph 95% 0.02 in 0.00 W/m2
02:20 44.6 °F 43.3 °F 29.5 in WNW 4.9 mph 7 mph 95% 0.02 in 0.00 W/m2
02:25 44.6 °F 43.3 °F 29.5 in West 6.9 mph 8 mph 95% 0.02 in 0.00 W/m2
02:30 44.6 °F 43.3 °F 29.5 in WNW 2 mph 7 mph 95% 0.01 in 0.00 W/m2
02:35 44.8 °F 43.2 °F 29.5 in West 2.9 mph 5 mph 94% 0.01 in 0.00 W/m2
02:41 44.6 °F 43 °F 29.5 in WNW 4.9 mph 7 mph 94% 0.01 in 0.00 W/m2
02:45 44.8 °F 43.2 °F 29.5 in WNW 2.9 mph 6 mph 94% 0.01 in 0.00 W/m2
02:50 44.8 °F 43.5 °F 29.5 in West 4 mph 9 mph 95% 0.01 in 0.00 W/m2
02:55 44.8 °F 43.2 °F 29.5 in WNW 0.9 mph 6 mph 94% 0.01 in 0.00 W/m2
03:00 44.8 °F 43.2 °F 29.5 in WNW 2 mph 7 mph 94% 0.01 in 0.00 W/m2
03:05 44.8 °F 43.2 °F 29.5 in West 6 mph 7 mph 94% 0.01 in 0.00 W/m2
03:10 44.8 °F 43.2 °F 29.5 in West 0.9 mph 4 mph 94% 0 in 0.00 W/m2
03:15 44.8 °F 43.2 °F 29.5 in NW 0.9 mph 3 mph 94% 0 in 0.00 W/m2
03:20 44.8 °F 43.2 °F 29.5 in WNW 0.9 mph 4 mph 94% 0 in 0.00 W/m2
03:25 44.8 °F 43.2 °F 29.5 in WNW 2.9 mph 5 mph 94% 0 in 0.00 W/m2
03:30 44.6 °F 43 °F 29.5 in West 0.9 mph 3 mph 94% 0 in 0.00 W/m2
03:35 44.8 °F 43.2 °F 29.5 in West 0.9 mph 3 mph 94% 0 in 0.00 W/m2
03:40 44.6 °F 43 °F 29.5 in Calm   1 mph 94% 0 in 0.00 W/m2
03:45 44.6 °F 43 °F 29.5 in Calm     94% 0 in 0.00 W/m2
03:50 44.6 °F 43 °F 29.5 in West 0.9 mph 1 mph 94% 0 in 0.00 W/m2
03:55 44.6 °F 43 °F 29.5 in Calm   2 mph 94% 0 in 0.00 W/m2
04:00 44.4 °F 42.8 °F 29.5 in Calm   2 mph 94% 0 in 0.00 W/m2
04:05 44.6 °F 43 °F 29.5 in Calm   1 mph 94% 0 in 0.00 W/m2
04:10 44.4 °F 42.8 °F 29.5 in West 2 mph 3 mph 94% 0 in 0.00 W/m2
04:15 44.4 °F 42.8 °F 29.5 in Calm   2 mph 94% 0 in 0.00 W/m2
04:20 44.4 °F 42.8 °F 29.5 in Calm   3 mph 94% 0 in 0.00 W/m2
04:25 44.4 °F 42.8 °F 29.5 in Calm     94% 0 in 0.00 W/m2
04:30 44.4 °F 42.8 °F 29.5 in WSW 2 mph 3 mph 94% 0 in 0.00 W/m2
04:35 44.6 °F 43 °F 29.5 in WNW 2 mph 5 mph 94% 0 in 0.00 W/m2
04:40 44.6 °F 43 °F 29.5 in WNW 0.9 mph 2 mph 94% 0 in 0.00 W/m2
04:45 44.6 °F 43 °F 29.5 in SW 0.9 mph 4 mph 94% 0 in 0.00 W/m2
04:50 44.6 °F 43 °F 29.5 in West 2 mph 4 mph 94% 0 in 0.00 W/m2
04:55 44.6 °F 43 °F 29.5 in SW 0.9 mph 3 mph 94% 0 in 0.00 W/m2
05:00 44.6 °F 43 °F 29.5 in SW 0.9 mph 5 mph 94% 0 in 0.00 W/m2
05:05 44.6 °F 43 °F 29.5 in West 2.9 mph 7 mph 94% 0 in 0.00 W/m2
05:10 44.8 °F 43.2 °F 29.5 in SW 2 mph 6 mph 94% 0 in 0.00 W/m2
05:15 44.8 °F 42.8 °F 29.5 in West 4.9 mph 7 mph 93% 0 in 0.00 W/m2
05:20 45 °F 43 °F 29.5 in West 2.9 mph 4 mph 93% 0 in 0.00 W/m2
05:25 45 °F 43 °F 29.5 in WSW 0.9 mph 4 mph 93% 0 in 0.00 W/m2
05:30 45 °F 43 °F 29.5 in SW 2.9 mph 4 mph 93% 0 in 0.00 W/m2
05:35 45 °F 42.8 °F 29.5 in West 4 mph 5 mph 92% 0 in 0.00 W/m2
05:40 45 °F 42.8 °F 29.5 in WSW 4 mph 5 mph 92% 0 in 0.00 W/m2
05:45 45.1 °F 43 °F 29.5 in SW 2.9 mph 4 mph 92% 0 in 0.00 W/m2
05:50 45.1 °F 43 °F 29.5 in SW 4.9 mph 6 mph 92% 0 in 0.00 W/m2
05:55 45.1 °F 42.6 °F 29.5 in SSW 2.9 mph 8 mph 91% 0 in 0.00 W/m2
06:00 45.1 °F 42.6 °F 29.5 in SW 2.9 mph 6 mph 91% 0.01 in 0.00 W/m2
06:05 45.1 °F 42.6 °F 29.5 in SW 2 mph 10 mph 91% 0.01 in 0.00 W/m2
06:10 45.1 °F 42.6 °F 29.5 in SW 4 mph 7 mph 91% 0.01 in 0.00 W/m2
06:15 45.1 °F 42.6 °F 29.5 in West 4 mph 6 mph 91% 0.01 in 0.00 W/m2
06:20 45.1 °F 42.4 °F 29.5 in West 2 mph 5 mph 90% 0.01 in 0.00 W/m2
06:25 45.1 °F 42.4 °F 29.5 in SW 2.9 mph 6 mph 90% 0.01 in 0.00 W/m2
06:30 45.1 °F 42.4 °F 29.5 in SSW 0.9 mph 6 mph 90% 0.01 in 0.00 W/m2
06:35 45.1 °F 42.4 °F 29.5 in SW 0.9 mph 5 mph 90% 0.01 in 0.00 W/m2
06:40 45.1 °F 42.4 °F 29.5 in SW 0.9 mph 4 mph 90% 0.01 in 0.00 W/m2
06:45 45.1 °F 42.4 °F 29.5 in Calm     90% 0.01 in 0.00 W/m2
06:50 45.1 °F 42.4 °F 29.5 in SW 0.9 mph 2 mph 90% 0.01 in 0.00 W/m2
06:55 45 °F 42.3 °F 29.5 in SW 2.9 mph 4 mph 90% 0.01 in 0.00 W/m2
07:00 45 °F 42.3 °F 29.5 in SW 0.9 mph 4 mph 90% 0 in 0.00 W/m2
07:05 45.1 °F 42.4 °F 29.5 in SW 2.9 mph 4 mph 90% 0 in 0.00 W/m2
07:10 45.1 °F 42.4 °F 29.5 in Calm   3 mph 90% 0 in 0.00 W/m2
07:15 45.1 °F 42.6 °F 29.6 in SW 0.9 mph 1 mph 91% 0 in 0.00 W/m2
07:20 45.1 °F 42.6 °F 29.6 in Calm   2 mph 91% 0 in 0.00 W/m2
07:25 45 °F 42.3 °F 29.6 in WNW 2 mph 3 mph 90% 0 in 0.00 W/m2
07:30 44.8 °F 42.1 °F 29.6 in WNW 0.9 mph 2 mph 90% 0 in 0.00 W/m2
07:35 44.8 °F 42.3 °F 29.6 in WSW 2 mph 4 mph 91% 0 in 0.00 W/m2
07:40 44.8 °F 42.3 °F 29.6 in West 2 mph 3 mph 91% 0 in 0.00 W/m2
07:45 44.8 °F 42.3 °F 29.6 in West 2 mph 3 mph 91% 0 in 0.00 W/m2
07:50 44.8 °F 42.3 °F 29.6 in West 0.9 mph 4 mph 91% 0 in 0.00 W/m2
07:55 44.8 °F 42.3 °F 29.6 in SSW 2 mph 6 mph 91% 0 in 0.00 W/m2
08:00 44.8 °F 42.3 °F 29.6 in SW 0.9 mph 3 mph 91% 0 in 0.00 W/m2
08:05 45 °F 42.4 °F 29.6 in WSW 2 mph 3 mph 91% 0 in 0.00 W/m2
08:10 44.8 °F 42.3 °F 29.6 in Calm   3 mph 91% 0 in 0.00 W/m2
08:15 45 °F 42.4 °F 29.6 in Calm   4 mph 91% 0 in 0.00 W/m2
08:20 45 °F 42.4 °F 29.6 in SW 2 mph 5 mph 91% 0 in 0.00 W/m2
08:25 45.1 °F 42.6 °F 29.6 in West 4 mph 7 mph 91% 0 in 5.00 W/m2
08:30 45.3 °F 42.8 °F 29.6 in WSW 2.9 mph 8 mph 91% 0 in 9.00 W/m2
08:35 45.3 °F 42.8 °F 29.6 in SW 2 mph 6 mph 91% 0 in 9.00 W/m2
08:40 45.3 °F 42.8 °F 29.6 in WSW 2 mph 10 mph 91% 0 in 9.00 W/m2
08:45 45.5 °F 42.8 °F 29.6 in SW 6.9 mph 11 mph 90% 0 in 9.00 W/m2
08:50 45.7 °F 43 °F 29.6 in SSW 6 mph 9 mph 90% 0 in 12.00 W/m2
08:55 45.7 °F 43 °F 29.6 in WSW 6 mph 8 mph 90% 0 in 16.00 W/m2
09:00 45.7 °F 43 °F 29.6 in WSW 2 mph 8 mph 90% 0 in 19.00 W/m2
09:05 45.9 °F 42.8 °F 29.6 in SW 2.9 mph 9 mph 89% 0 in 21.00 W/m2
09:10 45.9 °F 42.8 °F 29.6 in WSW 4.9 mph 8 mph 89% 0 in 18.00 W/m2
09:15 45.9 °F 42.8 °F 29.6 in SW 2.9 mph 8 mph 89% 0 in 18.00 W/m2
09:20 45.9 °F 42.8 °F 29.6 in SW 4.9 mph 9 mph 89% 0 in 21.00 W/m2
09:25 46 °F 43 °F 29.6 in WNW 4.9 mph 9 mph 89% 0 in 16.00 W/m2
09:31 46 °F 43 °F 29.6 in SW 4.9 mph 8 mph 89% 0 in 18.00 W/m2
09:35 46 °F 43 °F 29.6 in SW 2.9 mph 7 mph 89% 0 in 23.00 W/m2
09:40 46 °F 43 °F 29.6 in West 2.9 mph 6 mph 89% 0 in 39.00 W/m2
09:45 46 °F 43 °F 29.6 in SW 4.9 mph 6 mph 89% 0 in 42.00 W/m2
09:50 46 °F 42.6 °F 29.6 in SSW 6 mph 11 mph 88% 0 in 42.00 W/m2
09:55 46.2 °F 42.8 °F 29.6 in South 6.9 mph 9 mph 88% 0 in 49.00 W/m2
10:00 46.2 °F 42.8 °F 29.6 in WSW 10.1 mph 10 mph 88% 0 in 30.00 W/m2
10:05 46.2 °F 42.8 °F 29.6 in WSW 4 mph 19 mph 88% 0 in 37.00 W/m2
10:11 46 °F 42.6 °F 29.7 in West 4.9 mph 12 mph 88% 0 in 65.00 W/m2
10:15 46 °F 42.6 °F 29.7 in West 2.9 mph 5 mph 88% 0 in 56.00 W/m2
10:20 46 °F 42.6 °F 29.7 in SSW 4 mph 7 mph 88% 0 in 67.00 W/m2
10:25 46.2 °F 43.2 °F 29.7 in WSW 2.9 mph 9 mph 89% 0 in 72.00 W/m2
10:30 46.2 °F 43.2 °F 29.7 in SW 6.9 mph 8 mph 89% 0 in 54.00 W/m2
10:35 46.2 °F 42.8 °F 29.7 in WSW 6 mph 11 mph 88% 0 in 33.00 W/m2
10:40 46.2 °F 42.8 °F 29.7 in WSW 8.1 mph 12 mph 88% 0 in 37.00 W/m2
10:45 46.2 °F 42.8 °F 29.7 in SW 6 mph 9 mph 88% 0 in 47.00 W/m2
10:50 46 °F 42.4 °F 29.7 in SSW 4 mph 12 mph 87% 0 in 118.00 W/m2
10:56 46.4 °F 42.8 °F 29.7 in West 2.9 mph 8 mph 87% 0 in 185.00 W/m2
11:00 46.8 °F 43.2 °F 29.7 in West 6.9 mph 12 mph 87% 0 in 207.00 W/m2
11:05 46.9 °F 43.3 °F 29.7 in WSW 2 mph 11 mph 87% 0 in 128.00 W/m2
11:10 47.1 °F 43.5 °F 29.7 in WSW 6.9 mph 9 mph 87% 0 in 86.00 W/m2
11:15 46.9 °F 43.3 °F 29.7 in SW 12.1 mph 14 mph 87% 0 in 58.00 W/m2
11:20 45.5 °F 41.5 °F 29.7 in West 14.1 mph 22 mph 86% 0.01 in 42.00 W/m2
11:25 44.8 °F 40.8 °F 29.7 in WSW 6 mph 20 mph 86% 0.01 in 23.00 W/m2
11:30 44.2 °F 40.3 °F 29.7 in WSW 6 mph 12 mph 86% 0.02 in 35.00 W/m2
11:35 43.9 °F 40.3 °F 29.7 in WSW 10.1 mph 11 mph 87% 0.02 in 137.00 W/m2
11:40 44.4 °F 40.8 °F 29.7 in SW 4.9 mph 10 mph 87% 0.02 in 200.00 W/m2
11:45 45 °F 41.4 °F 29.7 in WSW 2.9 mph 6 mph 87% 0.02 in 202.00 W/m2
11:50 45.1 °F 41.5 °F 29.7 in SSW 2 mph 5 mph 87% 0.02 in 204.00 W/m2
11:55 45.3 °F 41.7 °F 29.7 in SW 2 mph 8 mph 87% 0.02 in 207.00 W/m2
12:00 45.7 °F 41.7 °F 29.7 in WSW 4.9 mph 11 mph 86% 0.02 in 209.00 W/m2
12:05 46.6 °F 42.6 °F 29.7 in SW 2.9 mph 9 mph 86% 0.02 in 211.00 W/m2
12:10 46.8 °F 42.4 °F 29.7 in WNW 2 mph 9 mph 85% 0.02 in 213.00 W/m2
12:15 46.9 °F 42.4 °F 29.7 in West 2.9 mph 9 mph 84% 0.02 in 216.00 W/m2
12:20 47.1 °F 42.6 °F 29.7 in WSW 2 mph 10 mph 84% 0.01 in 218.00 W/m2
12:25 47.5 °F 42.8 °F 29.7 in WSW 8.1 mph 13 mph 84% 0.01 in 216.00 W/m2
12:30 47.8 °F 43 °F 29.7 in WSW 4.9 mph 8 mph 83% 0 in 216.00 W/m2
12:35 48 °F 43.2 °F 29.7 in West 6.9 mph 14 mph 83% 0.01 in 218.00 W/m2
12:40 48.4 °F 42.8 °F 29.7 in SW 14.1 mph 16 mph 81% 0.01 in 216.00 W/m2
12:45 48.4 °F 42.4 °F 29.7 in WSW 8.9 mph 14 mph 80% 0.01 in 216.00 W/m2
12:50 48.7 °F 42.4 °F 29.7 in WSW 6.9 mph 16 mph 79% 0.01 in 202.00 W/m2
12:55 48.6 °F 42.1 °F 29.7 in West 8.1 mph 16 mph 78% 0.01 in 211.00 W/m2
13:00 48.7 °F 42.3 °F 29.7 in WSW 8.1 mph 15 mph 78% 0.01 in 213.00 W/m2
13:05 48.9 °F 42.4 °F 29.7 in West 6 mph 11 mph 78% 0.01 in 221.00 W/m2
13:10 49.1 °F 42.3 °F 29.7 in West 6.9 mph 14 mph 77% 0.01 in 271.00 W/m2
13:15 49.1 °F 42.6 °F 29.7 in West 8.1 mph 12 mph 78% 0.01 in 250.00 W/m2
13:20 49.3 °F 42.4 °F 29.8 in SW 8.1 mph 14 mph 77% 0.01 in 116.00 W/m2
13:25 49.3 °F 42.8 °F 29.8 in SW 6 mph 10 mph 78% 0.01 in 229.00 W/m2
13:30 49.1 °F 42.3 °F 29.8 in WSW 4.9 mph 13 mph 77% 0.01 in 204.00 W/m2
13:35 48.9 °F 41.7 °F 29.8 in WSW 8.9 mph 12 mph 76% 0 in 199.00 W/m2
13:40 49.1 °F 41.9 °F 29.8 in West 8.9 mph 15 mph 76% 0 in 185.00 W/m2
13:45 48.9 °F 41.4 °F 29.8 in West 6.9 mph 14 mph 75% 0 in 53.00 W/m2
13:50 48.7 °F 41.5 °F 29.8 in SW 8.1 mph 13 mph 76% 0 in 120.00 W/m2
13:55 48.6 °F 41.4 °F 29.8 in WSW 8.9 mph 11 mph 76% 0 in 67.00 W/m2
14:00 48.4 °F 41.2 °F 29.8 in WNW 6.9 mph 14 mph 76% 0 in 172.00 W/m2
14:05 48.9 °F 42.1 °F 29.8 in West 8.9 mph 12 mph 77% 0 in 199.00 W/m2
14:10 48.9 °F 42.1 °F 29.8 in West 6 mph 12 mph 77% 0 in 156.00 W/m2
14:15 48.9 °F 41.7 °F 29.8 in WSW 13 mph 20 mph 76% 0 in 153.00 W/m2
14:20 48.9 °F 41.4 °F 29.8 in WSW 6.9 mph 15 mph 75% 0 in 146.00 W/m2
14:25 48.7 °F 40.8 °F 29.8 in West 10.1 mph 19 mph 74% 0 in 137.00 W/m2
14:30 48.9 °F 41.4 °F 29.8 in WNW 6 mph 16 mph 75% 0 in 130.00 W/m2
14:35 48.9 °F 41.4 °F 29.8 in WSW 10.1 mph 14 mph 75% 0 in 121.00 W/m2
14:40 48.9 °F 41.4 °F 29.8 in West 8.1 mph 13 mph 75% 0 in 113.00 W/m2
14:45 48.9 °F 41.4 °F 29.8 in SW 8.1 mph 13 mph 75% 0 in 105.00 W/m2
14:50 48.9 °F 41 °F 29.8 in WSW 11 mph 17 mph 74% 0 in 102.00 W/m2
14:55 48.9 °F 41 °F 29.8 in SW 8.1 mph 13 mph 74% 0 in 95.00 W/m2
15:00 48.9 °F 41 °F 29.8 in SW 10.1 mph 16 mph 74% 0 in 84.00 W/m2
15:05 48.7 °F 40.8 °F 29.8 in WSW 6 mph 11 mph 74% 0 in 39.00 W/m2
15:10 48.6 °F 40.6 °F 29.8 in WSW 10.1 mph 12 mph 74% 0 in 46.00 W/m2
15:15 48.6 °F 40.6 °F 29.8 in WSW 2.9 mph 10 mph 74% 0 in 28.00 W/m2
15:20 48.4 °F 40.5 °F 29.8 in WSW 8.1 mph 12 mph 74% 0 in 23.00 W/m2
15:25 48.4 °F 40.5 °F 29.8 in WSW 8.9 mph 12 mph 74% 0 in 72.00 W/m2
15:30 48.4 °F 40.8 °F 29.8 in NW 8.1 mph 16 mph 75% 0 in 70.00 W/m2
15:35 48.4 °F 40.8 °F 29.8 in West 8.1 mph 15 mph 75% 0 in 49.00 W/m2
15:40 48.4 °F 40.5 °F 29.8 in West 8.1 mph 13 mph 74% 0 in 30.00 W/m2
15:45 48 °F 40.1 °F 29.8 in WNW 10.1 mph 13 mph 74% 0 in 26.00 W/m2
15:50 47.8 °F 39.9 °F 29.8 in WSW 4.9 mph 13 mph 74% 0 in 32.00 W/m2
15:56 47.5 °F 39.9 °F 29.8 in WNW 4 mph 10 mph 75% 0 in 21.00 W/m2
16:00 47.1 °F 39.6 °F 29.8 in West 8.9 mph 9 mph 75% 0 in 19.00 W/m2
16:05 46.9 °F 39.7 °F 29.9 in WNW 2.9 mph 8 mph 76% 0 in 16.00 W/m2
16:10 46.8 °F 39.9 °F 29.9 in WSW 2.9 mph 6 mph 77% 0 in 12.00 W/m2
16:15 46.6 °F 39.7 °F 29.9 in WSW 2 mph 5 mph 77% 0 in 11.00 W/m2
16:20 46.4 °F 39.6 °F 29.9 in WSW 4 mph 6 mph 77% 0 in 7.00 W/m2
16:25 46.2 °F 39.7 °F 29.9 in SW 0.9 mph 6 mph 78% 0 in 5.00 W/m2
16:30 46 °F 39.6 °F 29.9 in WSW 2.9 mph 6 mph 78% 0 in 0.00 W/m2
16:35 46.2 °F 40.1 °F 29.9 in West 4 mph 10 mph 79% 0 in 0.00 W/m2
16:40 46.2 °F 39.7 °F 29.9 in West 4.9 mph 8 mph 78% 0 in 0.00 W/m2
16:45 46.4 °F 40.3 °F 29.9 in WSW 6 mph 10 mph 79% 0 in 0.00 W/m2
16:50 46.4 °F 40.3 °F 29.9 in WSW 4 mph 6 mph 79% 0 in 0.00 W/m2
16:55 46.2 °F 40.1 °F 29.9 in West 6.9 mph 8 mph 79% 0 in 0.00 W/m2
17:00 46.2 °F 40.1 °F 29.9 in WSW 4 mph 7 mph 79% 0 in 0.00 W/m2
17:05 46 °F 39.9 °F 29.9 in WSW 2.9 mph 9 mph 79% 0 in 0.00 W/m2
17:10 46 °F 39.9 °F 29.9 in WSW 4 mph 7 mph 79% 0 in 0.00 W/m2
17:15 45.9 °F 39.7 °F 29.9 in SW 4.9 mph 8 mph 79% 0 in 0.00 W/m2
17:20 45.9 °F 39.7 °F 29.9 in WSW 4.9 mph 8 mph 79% 0 in 0.00 W/m2
17:25 45.9 °F 39.7 °F 29.9 in SW 6.9 mph 8 mph 79% 0 in 0.00 W/m2
17:30 45.7 °F 39.6 °F 29.9 in WSW 4.9 mph 8 mph 79% 0 in 0.00 W/m2
17:35 45.7 °F 39.6 °F 29.9 in WSW 2.9 mph 7 mph 79% 0 in 0.00 W/m2
17:40 45.3 °F 39.2 °F 29.9 in West 2.9 mph 5 mph 79% 0 in 0.00 W/m2
17:45 45.5 °F 39.4 °F 29.9 in WSW 4 mph 8 mph 79% 0 in 0.00 W/m2
17:50 45.5 °F 39.4 °F 29.9 in WSW 4.9 mph 8 mph 79% 0 in 0.00 W/m2
17:55 45.5 °F 39.4 °F 29.9 in WSW 4.9 mph 10 mph 79% 0 in 0.00 W/m2
18:00 45.7 °F 39.2 °F 29.9 in WSW 4.9 mph 7 mph 78% 0 in 0.00 W/m2
18:05 45.7 °F 39.2 °F 29.9 in WSW 2.9 mph 7 mph 78% 0 in 0.00 W/m2
18:10 45.7 °F 39.2 °F 29.9 in WSW 6.9 mph 9 mph 78% 0 in 0.00 W/m2
18:15 45.7 °F 38.8 °F 29.9 in SW 4 mph 6 mph 77% 0 in 0.00 W/m2
18:20 45.7 °F 38.8 °F 29.9 in WSW 4 mph 7 mph 77% 0 in 0.00 W/m2
18:25 45.7 °F 38.8 °F 29.9 in WSW 4 mph 5 mph 77% 0 in 0.00 W/m2
18:30 45.5 °F 39 °F 29.9 in WSW 2.9 mph 5 mph 78% 0 in 0.00 W/m2
18:35 45.5 °F 39 °F 29.9 in SW 6 mph 7 mph 78% 0 in 0.00 W/m2
18:40 45.5 °F 38.7 °F 29.9 in WSW 4.9 mph 7 mph 77% 0 in 0.00 W/m2
18:45 45.5 °F 38.7 °F 29.9 in WSW 2.9 mph 5 mph 77% 0 in 0.00 W/m2
18:50 45.3 °F 38.8 °F 29.9 in SW 0.9 mph 7 mph 78% 0 in 0.00 W/m2
18:55 45.1 °F 38.7 °F 29.9 in WSW 2 mph 8 mph 78% 0 in 0.00 W/m2
19:00 45.3 °F 38.8 °F 29.9 in SW 2.9 mph 5 mph 78% 0 in 0.00 W/m2
19:05 45.3 °F 38.8 °F 29.9 in SSW 0.9 mph 4 mph 78% 0 in 0.00 W/m2
19:10 45.3 °F 38.8 °F 30 in SSW 2 mph 3 mph 78% 0 in 0.00 W/m2
19:15 45.1 °F 38.7 °F 30 in SSW 4 mph 4 mph 78% 0 in 0.00 W/m2
19:20 45.1 °F 38.7 °F 29.9 in SW 4.9 mph 8 mph 78% 0 in 0.00 W/m2
19:25 45.1 °F 38.7 °F 30 in South 4.9 mph 5 mph 78% 0 in 0.00 W/m2
19:30 45.3 °F 38.8 °F 30 in SW 2.9 mph 6 mph 78% 0 in 0.00 W/m2
19:35 45.3 °F 38.8 °F 30 in SW 4.9 mph 7 mph 78% 0 in 0.00 W/m2
19:40 45.3 °F 38.8 °F 30 in SW 4 mph 10 mph 78% 0 in 0.00 W/m2
19:45 45.3 °F 39.2 °F 30 in SW 4 mph 8 mph 79% 0 in 0.00 W/m2
19:50 45.5 °F 39.4 °F 30 in SW 4 mph 8 mph 79% 0 in 0.00 W/m2
19:55 45.7 °F 39.6 °F 30 in SW 4.9 mph 8 mph 79% 0 in 0.00 W/m2
20:00 45.3 °F 39.2 °F 30 in SSW 2.9 mph 7 mph 79% 0 in 0.00 W/m2
20:05 45.1 °F 39 °F 30 in SW 2 mph 5 mph 79% 0 in 0.00 W/m2
20:10 45.1 °F 39 °F 30 in SW 2.9 mph 5 mph 79% 0 in 0.00 W/m2
20:15 45.1 °F 39.4 °F 30 in SW 0.9 mph 4 mph 80% 0 in 0.00 W/m2
20:20 45.1 °F 39.4 °F 30 in SSW 2.9 mph 6 mph 80% 0 in 0.00 W/m2
20:25 45.1 °F 39.4 °F 30 in SSW 0.9 mph 3 mph 80% 0 in 0.00 W/m2
20:30 45.1 °F 39.4 °F 30 in South 2 mph 6 mph 80% 0 in 0.00 W/m2
20:35 45.1 °F 39.7 °F 30 in SW 4 mph 5 mph 81% 0 in 0.00 W/m2
20:40 45.1 °F 39.7 °F 30 in SSW 4 mph 6 mph 81% 0 in 0.00 W/m2
20:45 45.1 °F 39.7 °F 30 in SSW 2 mph 4 mph 81% 0 in 0.00 W/m2
20:50 45 °F 39.6 °F 30 in South 4 mph 4 mph 81% 0 in 0.00 W/m2
20:55 45.1 °F 39.9 °F 30 in SSW 4 mph 7 mph 82% 0 in 0.00 W/m2
21:00 45.1 °F 39.9 °F 30 in SW 4 mph 6 mph 82% 0 in 0.00 W/m2
21:05 45.1 °F 39.9 °F 30 in South 2.9 mph 7 mph 82% 0 in 0.00 W/m2
21:10 45.1 °F 39.9 °F 30 in SSW 4.9 mph 6 mph 82% 0 in 0.00 W/m2
21:15 45.1 °F 39.9 °F 30 in SSW 2.9 mph 5 mph 82% 0 in 0.00 W/m2
21:20 45 °F 39.7 °F 30 in SSW 4.9 mph 5 mph 82% 0 in 0.00 W/m2
21:25 45 °F 40.1 °F 30 in WSW 6.9 mph 7 mph 83% 0 in 0.00 W/m2
21:30 45 °F 40.1 °F 30 in SSW 4 mph 5 mph 83% 0 in 0.00 W/m2
21:35 45 °F 40.1 °F 30 in SSW 2.9 mph 4 mph 83% 0 in 0.00 W/m2
21:40 45 °F 40.1 °F 30 in South 0.9 mph 6 mph 83% 0 in 0.00 W/m2
21:45 45 °F 40.1 °F 30 in South 4.9 mph 5 mph 83% 0 in 0.00 W/m2
21:50 45 °F 40.1 °F 30 in SSW 0.9 mph 3 mph 83% 0 in 0.00 W/m2
21:55 44.8 °F 39.9 °F 30 in SSW 2.9 mph 5 mph 83% 0 in 0.00 W/m2
22:00 44.8 °F 39.9 °F 30 in Calm   2 mph 83% 0 in 0.00 W/m2
22:05 45 °F 40.1 °F 30 in Calm   5 mph 83% 0 in 0.00 W/m2
22:10 45.1 °F 40.3 °F 30 in Calm   3 mph 83% 0 in 0.00 W/m2
22:15 45.1 °F 40.3 °F 30 in WNW 0.9 mph 2 mph 83% 0 in 0.00 W/m2
22:20 45 °F 40.1 °F 30 in North 2 mph 4 mph 83% 0 in 0.00 W/m2
22:25 45 °F 40.5 °F 30 in WNW 0.9 mph 4 mph 84% 0 in 0.00 W/m2
22:30 45.1 °F 40.6 °F 30 in Calm   2 mph 84% 0 in 0.00 W/m2
22:35 45.1 °F 40.6 °F 30 in Calm   3 mph 84% 0 in 0.00 W/m2
22:40 45.5 °F 41 °F 30 in SW 2 mph 4 mph 84% 0 in 0.00 W/m2
22:45 46 °F 41.5 °F 30 in Calm   4 mph 84% 0 in 0.00 W/m2
22:50 45.7 °F 41.2 °F 30 in West 2.9 mph 3 mph 84% 0 in 0.00 W/m2
22:55 45.3 °F 40.8 °F 30 in Calm   2 mph 84% 0 in 0.00 W/m2
23:00 45.3 °F 40.8 °F 30 in Calm   2 mph 84% 0 in 0.00 W/m2
23:05 45.7 °F 41.4 °F 30 in SSW 0.9 mph 9 mph 85% 0 in 0.00 W/m2
23:10 45.7 °F 41.4 °F 30 in SW 2 mph 3 mph 85% 0 in 0.00 W/m2
23:15 45.7 °F 41.4 °F 30 in South 2 mph 6 mph 85% 0 in 0.00 W/m2
23:20 45.7 °F 41.4 °F 30 in SW 0.9 mph 3 mph 85% 0 in 0.00 W/m2
23:25 45.7 °F 41.4 °F 30 in SW 0.9 mph 3 mph 85% 0 in 0.00 W/m2
23:30 45.7 °F 41.4 °F 30 in SSW 0.9 mph 4 mph 85% 0 in 0.00 W/m2
23:35 45.7 °F 41.4 °F 30 in SSW 2 mph 3 mph 85% 0 in 0.00 W/m2
23:40 45.7 °F 41.4 °F 30 in SSW 2 mph 3 mph 85% 0 in 0.00 W/m2
23:45 45.7 °F 41.4 °F 30 in SSW 0.9 mph 4 mph 85% 0 in 0.00 W/m2
23:50 45.7 °F 41.4 °F 30 in SSW 0.9 mph 1 mph 85% 0 in 0.00 W/m2
23:55 45.7 °F 41.4 °F 30 in SSW 2 mph 3 mph 85% 0 in 0.00 W/m2